createdAt,value
2018-01-28T00:01:15.095Z,13.00
2018-01-28T00:03:42.654Z,11.60
2018-01-28T00:06:10.958Z,11.23
2018-01-28T00:08:38.514Z,12.77
2018-01-28T00:11:06.869Z,12.07
2018-01-28T00:13:34.430Z,12.07
2018-01-28T00:16:02.017Z,11.20
2018-01-28T00:18:29.633Z,12.53
2018-01-28T00:20:57.164Z,10.13
2018-01-28T00:23:24.723Z,11.63
2018-01-28T00:25:52.249Z,12.67
2018-01-28T00:28:20.629Z,11.50
2018-01-28T00:30:48.922Z,12.10
2018-01-28T00:33:16.624Z,12.60
2018-01-28T00:35:44.954Z,10.80
2018-01-28T00:38:13.367Z,11.87
2018-01-28T00:40:40.922Z,11.70
2018-01-28T00:43:08.465Z,10.47
2018-01-28T00:45:36.054Z,11.57
2018-01-28T00:48:03.614Z,12.37
2018-01-28T00:50:31.281Z,10.00
2018-01-28T00:52:58.845Z,11.10
2018-01-28T00:55:26.369Z,11.77
2018-01-28T00:57:53.918Z,11.60
2018-01-28T01:00:21.447Z,11.80
2018-01-28T01:02:49.005Z,12.50
2018-01-28T01:05:16.535Z,11.27
2018-01-28T01:07:44.093Z,11.67
2018-01-28T01:10:11.704Z,13.70
2018-01-28T01:12:40.024Z,11.00
2018-01-28T01:15:07.709Z,11.87
2018-01-28T01:17:35.254Z,12.97
2018-01-28T01:20:02.815Z,11.47
2018-01-28T01:22:30.338Z,12.57
2018-01-28T01:24:57.890Z,12.00
2018-01-28T01:27:26.198Z,11.20
2018-01-28T01:29:53.763Z,12.10
2018-01-28T01:32:21.386Z,10.40
2018-01-28T01:34:49.706Z,12.07
2018-01-28T01:37:17.239Z,11.30
2018-01-28T01:39:44.801Z,11.73
2018-01-28T01:42:12.330Z,11.10
2018-01-28T01:44:40.654Z,12.30
2018-01-28T01:47:08.186Z,10.20
2018-01-28T01:49:35.738Z,11.10
2018-01-28T01:52:04.029Z,11.03
2018-01-28T01:54:31.594Z,11.27
2018-01-28T01:56:59.141Z,10.80
2018-01-28T01:59:27.469Z,11.30
2018-01-28T02:01:54.998Z,10.33
2018-01-28T02:04:22.546Z,12.23
2018-01-28T02:06:50.072Z,10.37
2018-01-28T02:09:17.630Z,10.57
2018-01-28T02:11:45.158Z,9.00
2018-01-28T02:14:18.069Z,11.43
2018-01-28T02:16:45.602Z,10.47
2018-01-28T02:19:13.158Z,9.77
2018-01-28T02:21:40.686Z,10.40
2018-01-28T02:24:08.241Z,10.60
2018-01-28T02:26:35.774Z,10.83
2018-01-28T02:29:03.325Z,10.37
2018-01-28T02:31:30.850Z,10.63
2018-01-28T02:33:58.422Z,10.67
2018-01-28T02:36:25.952Z,11.30
2018-01-28T02:38:53.511Z,11.33
2018-01-28T02:41:21.030Z,10.03
2018-01-28T02:43:48.585Z,10.10
2018-01-28T02:46:16.118Z,9.80
2018-01-28T02:48:43.666Z,10.53
2018-01-28T02:51:11.197Z,9.37
2018-01-28T02:53:38.753Z,8.67
2018-01-28T02:56:06.285Z,8.30
2018-01-28T02:58:34.606Z,9.07
2018-01-28T03:01:02.126Z,9.10
2018-01-28T03:03:29.686Z,8.53
2018-01-28T03:05:57.990Z,8.37
2018-01-28T03:08:25.550Z,9.37
2018-01-28T03:10:53.084Z,8.90
2018-01-28T03:13:20.638Z,8.70
2018-01-28T03:15:48.177Z,7.50
2018-01-28T03:18:15.727Z,7.53
2018-01-28T03:20:43.268Z,8.87
2018-01-28T03:23:10.813Z,7.83
2018-01-28T03:25:38.337Z,9.10
2018-01-28T03:28:06.085Z,8.20
2018-01-28T03:30:33.613Z,7.77
2018-01-28T03:33:01.137Z,7.57
2018-01-28T03:35:29.469Z,7.03
2018-01-28T03:37:56.990Z,7.37
2018-01-28T03:40:24.543Z,8.13
2018-01-28T03:42:52.084Z,7.77
2018-01-28T03:45:20.445Z,9.57
2018-01-28T03:47:47.977Z,7.30
2018-01-28T03:50:15.524Z,7.43
2018-01-28T03:52:43.048Z,7.97
2018-01-28T03:55:11.370Z,8.17
2018-01-28T03:57:38.913Z,8.00
2018-01-28T04:00:06.462Z,6.67
2018-01-28T04:02:34.035Z,9.30
2018-01-28T04:05:01.583Z,7.80
2018-01-28T04:07:29.114Z,7.90
2018-01-28T04:09:57.434Z,7.90
2018-01-28T04:12:24.998Z,8.33
2018-01-28T04:14:52.575Z,7.70
2018-01-28T04:17:20.122Z,8.40
2018-01-28T04:19:47.677Z,8.10
2018-01-28T04:22:15.217Z,8.57
2018-01-28T04:24:42.769Z,7.07
2018-01-28T04:27:10.387Z,7.40
2018-01-28T04:29:38.746Z,8.03
2018-01-28T04:32:06.276Z,9.17
2018-01-28T04:34:33.834Z,7.23
2018-01-28T04:37:01.361Z,7.27
2018-01-28T04:39:28.918Z,8.80
2018-01-28T04:41:56.442Z,8.80
2018-01-28T04:44:23.986Z,8.73
2018-01-28T04:46:51.526Z,7.13
2018-01-28T04:49:19.850Z,8.60
2018-01-28T04:51:47.369Z,8.63
2018-01-28T04:54:14.966Z,9.30
2018-01-28T04:56:42.589Z,9.10
2018-01-28T04:59:12.614Z,8.93
2018-01-28T05:01:40.137Z,8.83
2018-01-28T05:04:07.691Z,8.87
2018-01-28T05:06:35.228Z,8.57
2018-01-28T05:09:02.844Z,9.20
2018-01-28T05:11:30.330Z,9.07
2018-01-28T05:13:57.887Z,9.80
2018-01-28T05:16:25.409Z,9.57
2018-01-28T05:18:53.834Z,9.90
2018-01-28T05:21:21.366Z,8.97
2018-01-28T05:23:48.913Z,9.10
2018-01-28T05:26:17.214Z,9.63
2018-01-28T05:28:44.761Z,10.33
2018-01-28T05:31:13.046Z,9.40
2018-01-28T05:33:40.594Z,11.43
2018-01-28T05:36:08.223Z,11.60
2018-01-28T05:38:35.783Z,11.23
2018-01-28T05:41:03.310Z,10.40
2018-01-28T05:43:30.833Z,10.10
2018-01-28T05:45:59.155Z,10.70
2018-01-28T05:48:26.689Z,11.03
2018-01-28T05:50:54.237Z,10.00
2018-01-28T05:53:21.769Z,10.07
2018-01-28T05:55:49.314Z,10.73
2018-01-28T05:58:16.841Z,11.17
2018-01-28T06:00:44.393Z,10.10
2018-01-28T06:03:11.929Z,11.23
2018-01-28T06:05:40.248Z,11.17
2018-01-28T06:08:07.777Z,11.50
2018-01-28T06:10:35.335Z,10.73
2018-01-28T06:13:02.867Z,10.07
2018-01-28T06:15:31.190Z,10.97
2018-01-28T06:17:58.726Z,12.50
2018-01-28T06:20:26.296Z,11.30
2018-01-28T06:22:53.822Z,11.73
2018-01-28T06:25:21.377Z,11.23
2018-01-28T06:27:48.945Z,11.20
2018-01-28T06:30:17.274Z,11.53
2018-01-28T06:52:11.087Z,11.47
2018-01-28T06:54:38.651Z,10.97
2018-01-28T06:57:06.173Z,12.33
2018-01-28T06:59:33.726Z,10.67
2018-01-28T07:02:01.261Z,9.20
2018-01-28T07:04:30.039Z,10.33
2018-01-28T07:06:57.565Z,11.00
2018-01-28T07:09:25.136Z,10.30
2018-01-28T07:11:53.425Z,10.37
2018-01-28T07:14:20.975Z,10.33
2018-01-28T07:16:48.501Z,11.00
2018-01-28T07:19:16.068Z,9.93
2018-01-28T07:21:43.599Z,11.10
2018-01-28T07:24:11.916Z,11.07
2018-01-28T07:26:39.447Z,10.57
2018-01-28T07:29:07.001Z,11.20
2018-01-28T07:31:35.300Z,10.30
2018-01-28T07:34:02.850Z,10.03
2018-01-28T07:36:30.379Z,10.60
2018-01-28T07:38:57.901Z,10.03
2018-01-28T07:41:26.222Z,10.53
2018-01-28T07:43:54.511Z,9.27
2018-01-28T07:46:22.829Z,9.83
2018-01-28T07:48:50.350Z,9.23
2018-01-28T07:51:18.668Z,8.30
2018-01-28T07:53:46.195Z,9.00
2018-01-28T07:56:13.750Z,7.80
2018-01-28T07:58:41.277Z,8.00
2018-01-28T08:01:08.831Z,7.90
2018-01-28T08:03:36.354Z,7.83
2018-01-28T08:06:03.902Z,8.80
2018-01-28T08:08:41.355Z,7.60
2018-01-28T08:11:18.823Z,8.10
2018-01-28T08:13:52.187Z,9.63
2018-01-28T08:16:19.788Z,8.67
2018-01-28T08:18:47.317Z,7.37
2018-01-28T08:21:14.866Z,8.47
2018-01-28T08:23:42.389Z,7.30
2018-01-28T08:26:10.701Z,7.80
2018-01-28T08:28:48.945Z,7.80
2018-01-28T08:31:16.493Z,6.50
2018-01-28T08:33:44.014Z,6.20
2018-01-28T08:36:11.606Z,6.20
2018-01-28T08:38:39.126Z,6.23
2018-01-28T08:41:07.439Z,5.43
2018-01-28T08:43:34.966Z,7.97
2018-01-28T08:46:03.194Z,7.10
2018-01-28T08:48:30.790Z,7.27
2018-01-28T08:50:59.102Z,7.37
2018-01-28T08:53:26.621Z,5.83
2018-01-28T08:55:54.938Z,6.00
2018-01-28T08:58:22.475Z,5.67
2018-01-28T09:00:50.028Z,6.30
2018-01-28T09:03:18.317Z,6.10
2018-01-28T09:05:45.950Z,5.77
2018-01-28T09:08:13.729Z,6.40
2018-01-28T09:10:42.043Z,5.50
2018-01-28T09:13:09.859Z,5.47
2018-01-28T09:15:37.404Z,7.07
2018-01-28T09:18:04.930Z,6.03
2018-01-28T09:20:32.478Z,7.30
2018-01-28T09:23:00.002Z,5.70
2018-01-28T09:25:28.358Z,5.37
2018-01-28T09:27:55.879Z,4.97
2018-01-28T09:30:23.527Z,5.60
2018-01-28T09:32:51.081Z,6.27
2018-01-28T09:35:18.633Z,6.90
2018-01-28T09:37:46.922Z,5.33
2018-01-28T09:40:14.508Z,5.60
2018-01-28T09:42:42.053Z,5.30
2018-01-28T09:45:09.601Z,8.10
2018-01-28T09:47:37.127Z,6.93
2018-01-28T09:50:04.679Z,6.00
2018-01-28T09:52:32.286Z,8.30
2018-01-28T09:54:59.834Z,9.43
2018-01-28T09:57:28.117Z,10.70
2018-01-28T09:59:55.676Z,8.13
2018-01-28T10:02:23.210Z,8.53
2018-01-28T10:04:50.781Z,8.70
2018-01-28T10:07:19.081Z,7.43
2018-01-28T10:09:46.714Z,5.60
2018-01-28T10:12:15.005Z,6.70
2018-01-28T10:14:43.405Z,5.20
2018-01-28T10:17:10.928Z,5.70
2018-01-28T10:19:38.486Z,5.53
2018-01-28T10:22:06.026Z,5.60
2018-01-28T10:24:33.552Z,5.50
2018-01-28T10:27:01.097Z,5.03
2018-01-28T10:29:28.623Z,6.63
2018-01-28T10:31:56.180Z,6.23
2018-01-28T10:34:23.705Z,6.07
2018-01-28T10:36:51.258Z,6.50
2018-01-28T10:39:18.806Z,6.93
2018-01-28T10:41:46.357Z,5.97
2018-01-28T10:44:13.878Z,5.90
2018-01-28T10:46:41.466Z,5.50
2018-01-28T10:49:08.993Z,6.33
2018-01-28T10:51:37.386Z,6.57
2018-01-28T10:54:05.681Z,5.10
2018-01-28T10:56:34.023Z,6.37
2018-01-28T10:59:02.337Z,6.03
2018-01-28T11:01:29.882Z,6.60
2018-01-28T11:03:58.170Z,5.70
2018-01-28T11:06:25.721Z,5.30
2018-01-28T11:08:54.044Z,5.30
2018-01-28T11:11:21.585Z,4.70
2018-01-28T11:13:49.277Z,6.03
2018-01-28T11:16:16.827Z,4.90
2018-01-28T11:18:44.353Z,5.30
2018-01-28T11:21:11.902Z,4.90
2018-01-28T11:23:40.209Z,5.07
2018-01-28T11:26:07.754Z,5.67
2018-01-28T11:28:35.270Z,4.27
2018-01-28T11:31:02.815Z,4.43
2018-01-28T11:33:30.330Z,5.27
2018-01-28T11:35:57.878Z,3.83
2018-01-28T11:38:26.171Z,4.40
2018-01-28T11:40:53.723Z,4.40
2018-01-28T11:43:21.291Z,4.33
2018-01-28T11:45:48.842Z,3.90
2018-01-28T11:48:16.408Z,4.27
2018-01-28T11:50:44.710Z,4.60
2018-01-28T11:53:12.230Z,4.00
2018-01-28T11:55:40.542Z,3.50
2018-01-28T11:58:08.057Z,3.63
2018-01-28T12:00:36.590Z,4.20
2018-01-28T12:03:04.106Z,2.73
2018-01-28T12:05:32.417Z,4.33
2018-01-28T12:07:59.933Z,3.20
2018-01-28T12:10:28.256Z,3.00
2018-01-28T12:12:55.774Z,4.07
2018-01-28T12:15:24.087Z,3.83
2018-01-28T12:17:51.782Z,2.70
2018-01-28T12:20:19.394Z,4.00
2018-01-28T12:22:46.913Z,2.37
2018-01-28T12:25:14.457Z,3.00
2018-01-28T12:27:41.982Z,2.63
2018-01-28T12:30:09.529Z,2.50
2018-01-28T12:32:37.815Z,2.00
2018-01-28T12:35:05.365Z,3.20
2018-01-28T12:37:33.651Z,2.63
2018-01-28T12:40:01.174Z,2.67
2018-01-28T12:42:28.717Z,3.93
2018-01-28T12:44:56.241Z,1.73
2018-01-28T12:47:23.790Z,2.47
2018-01-28T12:49:51.315Z,3.00
2018-01-28T12:52:18.874Z,2.97
2018-01-28T12:54:46.399Z,2.63
2018-01-28T12:57:13.979Z,3.27
2018-01-28T12:59:41.550Z,3.40
2018-01-28T13:02:09.102Z,4.80
2018-01-28T13:04:36.627Z,2.63
2018-01-28T13:07:04.170Z,2.70
2018-01-28T13:09:31.691Z,2.40
2018-01-28T13:11:59.237Z,2.60
2018-01-28T13:14:26.759Z,2.60
2018-01-28T13:16:54.322Z,3.00
2018-01-28T13:19:21.838Z,2.40
2018-01-28T13:21:50.151Z,4.30
2018-01-28T13:24:17.669Z,3.67
2018-01-28T13:26:46.046Z,2.60
2018-01-28T13:29:13.566Z,2.57
2018-01-28T13:31:41.114Z,3.90
2018-01-28T13:34:08.673Z,3.10
2018-01-28T13:36:36.218Z,3.10
2018-01-28T13:39:03.738Z,3.43
2018-01-28T13:41:31.289Z,3.63
2018-01-28T13:43:58.818Z,3.73
2018-01-28T13:46:26.361Z,3.20
2018-01-28T13:48:53.882Z,4.00
2018-01-28T13:51:21.425Z,4.77
2018-01-28T13:53:48.942Z,3.97
2018-01-28T13:56:16.491Z,4.00
2018-01-28T13:58:44.013Z,3.30
2018-01-28T14:01:11.613Z,3.60
2018-01-28T14:03:39.138Z,4.10
2018-01-28T14:06:06.685Z,2.63
2018-01-28T14:08:34.204Z,3.67
2018-01-28T14:11:01.742Z,3.80
2018-01-28T14:13:29.265Z,3.70
2018-01-28T14:15:56.814Z,3.13
2018-01-28T14:18:25.119Z,3.50
2018-01-28T14:20:53.438Z,2.80
2018-01-28T14:23:20.957Z,3.20
2018-01-28T14:25:49.278Z,3.60
2018-01-28T14:28:16.802Z,4.30
2018-01-28T14:30:45.094Z,5.20
2018-01-28T14:33:12.653Z,4.40
2018-01-28T14:35:40.199Z,4.10
2018-01-28T14:38:08.484Z,4.03
2018-01-28T14:40:36.010Z,4.20
2018-01-28T14:43:03.559Z,3.80
2018-01-28T14:45:31.085Z,4.67
2018-01-28T14:47:58.629Z,4.97
2018-01-28T14:50:26.158Z,4.47
2018-01-28T14:52:53.700Z,5.37
2018-01-28T14:55:21.223Z,5.57
2018-01-28T14:57:48.771Z,5.10
2018-01-28T15:00:16.291Z,6.70
2018-01-28T15:02:43.841Z,4.80
2018-01-28T15:05:11.363Z,5.10
2018-01-28T15:07:38.907Z,5.50
2018-01-28T15:10:06.426Z,5.80
2018-01-28T15:12:33.988Z,6.53
2018-01-28T15:15:01.513Z,5.57
2018-01-28T15:17:29.532Z,5.00
2018-01-28T15:19:57.826Z,4.40
2018-01-28T15:22:25.394Z,5.83
2018-01-28T15:24:52.922Z,5.00
2018-01-28T15:27:21.239Z,4.67
2018-01-28T15:29:48.765Z,4.97
2018-01-28T15:32:17.075Z,5.50
2018-01-28T15:34:44.594Z,6.80
2018-01-28T15:37:12.912Z,6.13
2018-01-28T15:39:40.435Z,5.40
2018-01-28T15:42:08.754Z,6.30
2018-01-28T15:44:36.274Z,5.67
2018-01-28T15:47:04.589Z,5.30
2018-01-28T15:49:32.107Z,5.83
2018-01-28T15:52:00.418Z,5.90
2018-01-28T15:54:27.942Z,6.20
2018-01-28T15:56:56.258Z,5.30
2018-01-28T15:59:23.782Z,5.97
2018-01-28T16:01:52.111Z,5.33
2018-01-28T16:04:19.630Z,5.70
2018-01-28T16:06:47.941Z,5.27
2018-01-28T16:09:15.462Z,5.23
2018-01-28T16:11:43.777Z,5.67
2018-01-28T16:14:11.298Z,5.93
2018-01-28T16:16:39.601Z,6.67
2018-01-28T16:19:07.117Z,6.87
2018-01-28T16:21:34.662Z,8.37
2018-01-28T16:24:02.192Z,6.17
2018-01-28T16:26:29.797Z,7.47
2018-01-28T16:28:57.291Z,8.23
2018-01-28T16:31:24.859Z,10.80
2018-01-28T16:33:52.390Z,14.23
2018-01-28T16:36:20.715Z,14.33
2018-01-28T16:38:48.246Z,12.40
2018-01-28T16:41:15.786Z,7.80
2018-01-28T16:43:44.079Z,6.80
2018-01-28T16:46:11.621Z,6.47
2018-01-28T16:48:39.906Z,6.80
2018-01-28T16:51:08.218Z,6.90
2018-01-28T16:53:35.742Z,7.00
2018-01-28T16:56:04.038Z,7.60
2018-01-28T16:58:31.581Z,7.30
2018-01-28T17:00:59.862Z,6.33
2018-01-28T17:03:28.169Z,7.60
2018-01-28T17:05:55.701Z,7.10
2018-01-28T17:08:23.246Z,7.00
2018-01-28T17:10:51.528Z,8.77
2018-01-28T17:13:19.850Z,7.57
2018-01-28T17:15:47.375Z,8.53
2018-01-28T17:18:14.936Z,8.27
2018-01-28T17:20:42.464Z,7.40
2018-01-28T17:23:10.017Z,7.80
2018-01-28T17:25:37.542Z,8.10
2018-01-28T17:28:05.090Z,7.70
2018-01-28T17:30:32.617Z,9.80
2018-01-28T17:33:00.927Z,7.33
2018-01-28T17:35:34.051Z,6.60
2018-01-28T17:38:01.602Z,6.20
2018-01-28T17:40:29.122Z,5.30
2018-01-28T17:42:56.674Z,5.57
2018-01-28T17:45:24.979Z,6.60
2018-01-28T17:47:52.533Z,5.97
2018-01-28T17:50:20.065Z,5.67
2018-01-28T17:52:48.381Z,5.60
2018-01-28T17:55:15.915Z,6.10
2018-01-28T17:57:43.470Z,5.40
2018-01-28T18:00:10.997Z,5.53
2018-01-28T18:02:38.546Z,6.30
2018-01-28T18:05:06.070Z,6.20
2018-01-28T18:07:33.614Z,6.50
2018-01-28T18:10:01.134Z,6.33
2018-01-28T18:12:28.680Z,7.03
2018-01-28T18:14:56.193Z,6.20
2018-01-28T18:17:23.757Z,6.43
2018-01-28T18:19:51.290Z,6.73
2018-01-28T18:22:19.601Z,7.10
2018-01-28T18:24:47.117Z,6.80
2018-01-28T18:27:15.426Z,6.13
2018-01-28T18:29:42.949Z,7.03
2018-01-28T18:32:10.486Z,6.80
2018-01-28T18:34:38.001Z,6.60
2018-01-28T18:37:05.546Z,5.67
2018-01-28T18:39:33.833Z,6.93
2018-01-28T18:42:01.375Z,6.73
2018-01-28T18:44:29.657Z,5.70
2018-01-28T18:46:58.003Z,6.23
2018-01-28T18:49:25.516Z,6.53
2018-01-28T18:51:53.067Z,6.70
2018-01-28T18:54:20.599Z,9.90
2018-01-28T18:56:48.145Z,8.60
2018-01-28T18:59:15.667Z,5.83
2018-01-28T19:01:43.210Z,7.00
2018-01-28T19:04:10.734Z,6.40
2018-01-28T19:06:38.285Z,6.93
2018-01-28T19:09:05.810Z,5.90
2018-01-28T19:11:33.330Z,5.20
2018-01-28T19:14:01.641Z,5.67
2018-01-28T19:16:29.169Z,5.23
2018-01-28T19:18:57.484Z,5.53
2018-01-28T19:21:25.006Z,5.00
2018-01-28T19:23:53.319Z,4.93
2018-01-28T19:26:20.834Z,4.67
2018-01-28T19:28:49.154Z,5.50
2018-01-28T19:31:16.674Z,4.40
2018-01-28T19:33:45.003Z,4.50
2018-01-28T19:36:12.532Z,4.70
2018-01-28T19:38:40.077Z,4.17
2018-01-28T19:41:08.361Z,4.23
2018-01-28T19:43:35.906Z,5.10
2018-01-28T19:46:06.222Z,4.50
2018-01-28T19:48:37.344Z,4.17
2018-01-28T19:51:07.583Z,5.17
2018-01-28T19:53:35.235Z,4.80
2018-01-28T19:56:02.770Z,4.60
2018-01-28T19:58:30.333Z,4.83
2018-01-28T20:00:57.858Z,4.80
2018-01-28T20:03:25.406Z,4.90
2018-01-28T20:05:53.694Z,4.60
2018-01-28T20:08:21.235Z,5.50
2018-01-28T20:10:49.574Z,4.20
2018-01-28T20:13:17.129Z,5.30
2018-01-28T20:15:45.429Z,4.37
2018-01-28T20:18:13.114Z,5.10
2018-01-28T20:20:40.774Z,5.63
2018-01-28T20:23:09.087Z,4.83
2018-01-28T20:25:36.610Z,4.73
2018-01-28T20:28:04.918Z,5.50
2018-01-28T20:30:32.443Z,7.60
2018-01-28T20:33:00.754Z,5.10
2018-01-28T20:35:28.434Z,9.57
2018-01-28T20:37:55.966Z,4.80
2018-01-28T20:40:23.648Z,6.20
2018-01-28T20:42:51.246Z,9.40
2018-01-28T20:45:18.768Z,5.17
2018-01-28T20:47:46.501Z,7.60
2018-01-28T20:50:14.789Z,7.80
2018-01-28T20:52:42.510Z,6.70
2018-01-28T20:55:10.045Z,5.80
2018-01-28T20:57:38.190Z,5.80
2018-01-28T21:00:05.729Z,6.10
2018-01-28T21:02:34.046Z,5.27
2018-01-28T21:05:01.579Z,6.33
2018-01-28T21:07:29.146Z,6.37
2018-01-28T21:09:56.678Z,9.37
2018-01-28T21:12:24.978Z,5.93
2018-01-28T21:14:52.521Z,5.80
2018-01-28T21:17:20.844Z,5.80
2018-01-28T21:19:48.374Z,5.10
2018-01-28T21:22:15.934Z,6.30
2018-01-28T21:24:43.463Z,5.70
2018-01-28T21:27:10.988Z,7.23
2018-01-28T21:29:38.559Z,5.43
2018-01-28T21:32:06.093Z,5.80
2018-01-28T21:34:33.652Z,6.30
2018-01-28T21:37:01.190Z,5.83
2018-01-28T21:39:28.745Z,5.77
2018-01-28T21:41:57.034Z,4.60
2018-01-28T21:44:24.585Z,6.33
2018-01-28T21:46:52.122Z,6.17
2018-01-28T21:49:19.674Z,6.67
2018-01-28T21:51:47.198Z,5.50
2018-01-28T21:54:14.774Z,6.50
2018-01-28T21:56:42.295Z,6.77
2018-01-28T21:59:09.843Z,4.67
2018-01-28T22:01:37.369Z,7.37
2018-01-28T22:04:05.013Z,5.93
2018-01-28T22:06:32.609Z,4.90
2018-01-28T22:09:01.165Z,5.00
2018-01-28T22:11:28.741Z,5.83
2018-01-28T22:13:56.297Z,4.37
2018-01-28T22:16:23.962Z,5.40
2018-01-28T22:18:52.291Z,5.20
2018-01-28T22:21:19.819Z,4.67
2018-01-28T22:23:48.129Z,6.20
2018-01-28T22:26:15.652Z,4.37
2018-01-28T22:28:43.966Z,4.30
2018-01-28T22:31:11.489Z,4.80
2018-01-28T22:33:39.809Z,4.00
2018-01-28T22:36:07.343Z,5.30
2018-01-28T22:38:34.909Z,5.03
2018-01-28T22:41:02.430Z,3.63
2018-01-28T22:43:30.070Z,4.90
2018-01-28T22:45:58.580Z,5.40
2018-01-28T22:48:26.993Z,4.70
2018-01-28T22:50:55.349Z,6.27
2018-01-28T22:53:23.662Z,5.00
2018-01-28T22:55:51.186Z,4.90
2018-01-28T22:58:19.516Z,5.07
2018-01-28T23:00:47.042Z,4.23
2018-01-28T23:03:14.602Z,5.00
2018-01-28T23:05:42.125Z,6.67
2018-01-28T23:08:09.670Z,4.87
2018-01-28T23:10:37.220Z,4.57
2018-01-28T23:13:04.768Z,6.50
2018-01-28T23:15:32.290Z,6.07
2018-01-28T23:18:00.606Z,6.67
2018-01-28T23:20:28.123Z,7.43
2018-01-28T23:22:55.669Z,5.90
2018-01-28T23:25:23.961Z,6.40
2018-01-28T23:27:52.286Z,7.20
2018-01-28T23:30:19.806Z,7.03
2018-01-28T23:32:47.434Z,6.33
2018-01-28T23:35:14.949Z,6.07
2018-01-28T23:37:42.506Z,6.57
2018-01-28T23:40:10.030Z,8.07
2018-01-28T23:42:38.323Z,7.50
2018-01-28T23:45:05.903Z,7.70
2018-01-28T23:47:33.430Z,6.97
2018-01-28T23:50:01.742Z,6.60
2018-01-28T23:52:29.273Z,5.90
2018-01-28T23:54:56.822Z,5.70
2018-01-28T23:57:25.109Z,5.83
2018-01-28T23:59:53.418Z,5.97
